createdAt,value
2022-09-27T00:01:40.601Z,94663.72
2022-09-27T00:04:35.953Z,94857.22
2022-09-27T00:07:04.102Z,94842.06
2022-09-27T00:09:42.818Z,94840.03
2022-09-27T00:12:11.096Z,94870.13
2022-09-27T00:14:39.288Z,94836.22
2022-09-27T00:17:07.448Z,94877.59
2022-09-27T00:19:36.997Z,94835.34
2022-09-27T00:22:05.637Z,94835.34
2022-09-27T00:24:34.265Z,94824.66
2022-09-27T00:27:02.569Z,94797.63
2022-09-27T00:29:30.974Z,94777.06
2022-09-27T00:31:59.449Z,94831.53
2022-09-27T00:34:27.992Z,94784.13
2022-09-27T00:36:57.479Z,94792.81
2022-09-27T00:39:25.921Z,94782.69
2022-09-27T00:41:54.304Z,94744.75
2022-09-27T00:45:08.193Z,94826.28
2022-09-27T00:47:42.473Z,94818.41
2022-09-27T00:50:24.199Z,94757.88
2022-09-27T00:53:06.406Z,94806.53
2022-09-27T00:55:41.172Z,94763.16
2022-09-27T00:58:09.772Z,94796.00
2022-09-27T01:00:40.122Z,94806.16
2022-09-27T01:03:11.418Z,94716.91
2022-09-27T01:05:41.712Z,94742.13
2022-09-27T01:08:11.682Z,94783.91
2022-09-27T01:10:52.517Z,94801.88
2022-09-27T01:13:26.254Z,94733.03
2022-09-27T01:16:05.731Z,94754.81
2022-09-27T01:18:39.849Z,94740.88
2022-09-27T01:21:39.380Z,94738.69
2022-09-27T01:24:54.791Z,94767.72
2022-09-27T01:27:58.197Z,94789.56
2022-09-27T01:30:33.719Z,94779.00
2022-09-27T01:33:26.949Z,94738.28
2022-09-27T01:36:10.471Z,94742.31
2022-09-27T01:38:52.523Z,94768.16
2022-09-27T01:41:30.501Z,94766.13
2022-09-27T01:44:26.266Z,94771.41
2022-09-27T01:47:05.887Z,94711.22
2022-09-27T01:49:54.691Z,94676.91
2022-09-27T01:52:28.660Z,94727.41
2022-09-27T01:55:01.419Z,94740.91
2022-09-27T01:58:00.217Z,94700.72
2022-09-27T02:00:29.253Z,94718.28
2022-09-27T02:03:27.439Z,94722.94
2022-09-27T02:06:46.685Z,94660.28
2022-09-27T02:09:34.502Z,94709.22
2022-09-27T02:12:15.661Z,94681.34
2022-09-27T02:14:48.695Z,94686.28
2022-09-27T02:17:28.293Z,94706.19
2022-09-27T02:20:07.212Z,94737.03
2022-09-27T02:22:50.364Z,94715.47
2022-09-27T02:25:25.757Z,94668.00
2022-09-27T02:28:02.047Z,94725.09
2022-09-27T02:30:34.013Z,94724.06
2022-09-27T02:33:15.252Z,94698.28
2022-09-27T02:35:46.042Z,94669.59
2022-09-27T02:38:14.548Z,94589.19
2022-09-27T02:40:47.196Z,94672.22
2022-09-27T02:43:18.317Z,94724.50
2022-09-27T02:46:05.768Z,94710.41
2022-09-27T02:48:48.942Z,94705.53
2022-09-27T02:51:34.363Z,94687.56
2022-09-27T02:54:15.402Z,94718.03
2022-09-27T02:57:32.360Z,94749.56
2022-09-27T03:00:19.177Z,94680.50
2022-09-27T03:03:10.199Z,94708.13
2022-09-27T03:05:45.285Z,94739.06
2022-09-27T03:08:16.164Z,94701.13
2022-09-27T03:10:45.129Z,94673.03
2022-09-27T03:13:14.057Z,94734.00
2022-09-27T03:15:43.433Z,94728.75
2022-09-27T03:18:20.598Z,94679.69
2022-09-27T03:21:14.701Z,94701.34
2022-09-27T03:23:44.256Z,94711.59
2022-09-27T03:26:13.296Z,94685.53
2022-09-27T03:28:42.202Z,94689.41
2022-09-27T03:31:10.578Z,94739.19
2022-09-27T03:34:07.837Z,94721.25
2022-09-27T03:36:36.578Z,94705.91
2022-09-27T03:39:06.378Z,94697.19
2022-09-27T03:41:35.007Z,94711.94
2022-09-27T03:44:03.352Z,94743.00
2022-09-27T03:46:31.783Z,94736.94
2022-09-27T03:49:00.116Z,94781.38
2022-09-27T03:51:28.405Z,94749.47
2022-09-27T03:53:56.817Z,94765.19
2022-09-27T03:56:26.421Z,94773.66
2022-09-27T03:58:54.849Z,94754.72
2022-09-27T04:01:23.318Z,94717.59
2022-09-27T04:04:11.425Z,94700.22
2022-09-27T04:06:39.927Z,94738.59
2022-09-27T04:09:09.191Z,94749.31
2022-09-27T04:11:56.786Z,94726.03
2022-09-27T04:14:25.050Z,94775.31
2022-09-27T04:17:22.378Z,94778.50
2022-09-27T04:20:11.774Z,94736.69
2022-09-27T04:22:45.509Z,94760.03
2022-09-27T04:25:14.298Z,94749.69
2022-09-27T04:27:48.524Z,94775.03
2022-09-27T04:30:17.292Z,94737.13
2022-09-27T04:33:04.086Z,94760.66
2022-09-27T04:36:18.784Z,94764.22
2022-09-27T04:39:06.994Z,94753.38
2022-09-27T04:41:38.266Z,94723.84
2022-09-27T04:44:07.878Z,94731.19
2022-09-27T04:46:36.399Z,94780.41
2022-09-27T04:49:04.678Z,94773.72
2022-09-27T04:51:36.707Z,94730.41
2022-09-27T04:54:05.930Z,94739.25
2022-09-27T04:56:38.008Z,94743.69
2022-09-27T04:59:10.944Z,94776.22
2022-09-27T05:01:41.422Z,94774.19
2022-09-27T05:04:15.494Z,94794.16
2022-09-27T05:06:50.731Z,94801.53
2022-09-27T05:09:27.551Z,94794.53
2022-09-27T05:11:57.838Z,94785.22
2022-09-27T05:14:42.306Z,94810.03
2022-09-27T05:17:34.143Z,94785.63
2022-09-27T05:20:22.813Z,94809.03
2022-09-27T05:23:08.179Z,94782.34
2022-09-27T05:25:36.889Z,94791.22
2022-09-27T05:28:06.131Z,94838.28
2022-09-27T05:30:36.367Z,94822.66
2022-09-27T05:33:08.798Z,94809.72
2022-09-27T05:35:54.100Z,94796.84
2022-09-27T05:38:26.648Z,94824.59
2022-09-27T05:40:58.793Z,94811.31
2022-09-27T05:43:28.370Z,94796.78
2022-09-27T05:46:01.279Z,94809.06
2022-09-27T05:48:30.308Z,94861.75
2022-09-27T05:51:08.652Z,94853.59
2022-09-27T05:53:40.126Z,94853.69
2022-09-27T05:56:14.749Z,94826.22
2022-09-27T05:59:03.202Z,94836.94
2022-09-27T06:01:47.400Z,94824.00
2022-09-27T06:04:34.393Z,94851.03
2022-09-27T06:07:44.308Z,94780.63
2022-09-27T06:10:19.096Z,94879.56
2022-09-27T06:12:47.456Z,94825.72
2022-09-27T06:15:37.465Z,94861.75
2022-09-27T06:18:11.196Z,94913.50
2022-09-27T06:20:41.493Z,94854.50
2022-09-27T06:23:12.200Z,94888.41
2022-09-27T06:25:41.552Z,94872.66
2022-09-27T06:28:35.060Z,94890.53
2022-09-27T06:31:08.938Z,94897.56
2022-09-27T06:33:43.053Z,94888.97
2022-09-27T06:36:11.649Z,94850.38
2022-09-27T06:38:42.131Z,94866.31
2022-09-27T06:41:17.251Z,94947.34
2022-09-27T06:43:54.423Z,94909.25
2022-09-27T06:46:31.428Z,94885.28
2022-09-27T06:49:12.026Z,94904.63
2022-09-27T06:51:42.203Z,94927.00
2022-09-27T06:54:10.395Z,94893.78
2022-09-27T06:56:38.735Z,94874.41
2022-09-27T06:59:24.669Z,94838.25
2022-09-27T07:02:16.943Z,94893.78
2022-09-27T07:05:00.022Z,94933.56
2022-09-27T07:07:42.391Z,94905.25
2022-09-27T07:10:10.981Z,94915.19
2022-09-27T07:12:39.457Z,94882.16
2022-09-27T07:15:08.418Z,94876.88
2022-09-27T07:17:37.370Z,94854.09
2022-09-27T07:20:08.516Z,94937.81
2022-09-27T07:22:42.266Z,94982.84
2022-09-27T07:25:11.524Z,94930.63
2022-09-27T07:27:41.639Z,94933.63
2022-09-27T07:30:13.125Z,94934.38
2022-09-27T07:32:42.261Z,94977.66
2022-09-27T07:35:15.500Z,94823.44
2022-09-27T07:37:45.478Z,94946.69
2022-09-27T07:40:15.301Z,94934.53
2022-09-27T07:42:43.785Z,94937.47
2022-09-27T07:45:13.715Z,94966.34
2022-09-27T07:48:02.911Z,94955.56
2022-09-27T07:50:55.529Z,94989.22
2022-09-27T07:53:42.410Z,95011.00
2022-09-27T07:56:47.125Z,95037.66
2022-09-27T07:59:18.928Z,94988.84
2022-09-27T08:01:47.463Z,95032.88
2022-09-27T08:04:18.499Z,95004.81
2022-09-27T08:06:49.166Z,94993.28
2022-09-27T08:09:19.078Z,95030.81
2022-09-27T08:11:48.438Z,94994.88
2022-09-27T08:14:16.667Z,94936.94
2022-09-27T08:16:47.608Z,94969.69
2022-09-27T08:19:20.073Z,94972.09
2022-09-27T08:22:00.381Z,95045.50
2022-09-27T08:24:50.022Z,95001.56
2022-09-27T08:27:44.225Z,95039.09
2022-09-27T08:30:34.867Z,95013.63
2022-09-27T08:33:04.753Z,95065.88
2022-09-27T08:35:34.186Z,95018.56
2022-09-27T08:38:05.922Z,95049.28
2022-09-27T08:40:50.361Z,95017.06
2022-09-27T08:43:34.797Z,95039.50
2022-09-27T08:46:20.447Z,95039.94
2022-09-27T08:49:06.906Z,95056.50
2022-09-27T08:51:36.643Z,95025.03
2022-09-27T08:54:09.614Z,95101.84
2022-09-27T08:56:38.529Z,95069.63
2022-09-27T08:59:15.213Z,95059.75
2022-09-27T09:01:44.500Z,95052.78
2022-09-27T09:04:27.404Z,95071.84
2022-09-27T09:07:06.962Z,95085.94
2022-09-27T09:09:47.964Z,95113.50
2022-09-27T09:12:47.184Z,95067.09
2022-09-27T09:15:30.885Z,94990.44
2022-09-27T09:18:28.286Z,94996.47
2022-09-27T09:21:31.101Z,95060.63
2022-09-27T09:24:27.382Z,95067.88
2022-09-27T09:27:06.124Z,95091.81
2022-09-27T09:30:05.349Z,95058.00
2022-09-27T09:32:53.179Z,95040.72
2022-09-27T09:35:27.599Z,95091.56
2022-09-27T09:38:00.599Z,95067.75
2022-09-27T09:40:33.570Z,95065.81
2022-09-27T09:43:09.099Z,95086.59
2022-09-27T09:45:42.937Z,95079.50
2022-09-27T09:48:22.278Z,95071.13
2022-09-27T09:50:55.068Z,95080.59
2022-09-27T09:53:33.524Z,95073.56
2022-09-27T09:56:09.197Z,95092.53
2022-09-27T09:58:45.823Z,95094.59
2022-09-27T10:01:22.984Z,95004.03
2022-09-27T10:03:56.444Z,95064.69
2022-09-27T10:06:26.125Z,95034.91
2022-09-27T10:08:55.828Z,95065.09
2022-09-27T10:11:40.786Z,95015.66
2022-09-27T10:14:23.928Z,95085.25
2022-09-27T10:17:00.923Z,95015.03
2022-09-27T10:19:33.072Z,95064.34
2022-09-27T10:22:13.315Z,95073.00
2022-09-27T10:24:57.995Z,95055.00
2022-09-27T10:27:45.885Z,95063.31
2022-09-27T10:30:29.667Z,94955.94
2022-09-27T10:33:01.082Z,95068.31
2022-09-27T10:35:45.579Z,95069.38
2022-09-27T10:38:29.053Z,94953.53
2022-09-27T10:41:28.949Z,95083.50
2022-09-27T10:44:22.711Z,95129.19
2022-09-27T10:47:09.236Z,95064.06
2022-09-27T10:49:46.145Z,95038.88
2022-09-27T10:52:34.374Z,95064.50
2022-09-27T10:55:09.864Z,95088.47
2022-09-27T10:57:44.299Z,95104.31
2022-09-27T11:00:24.677Z,95046.78
2022-09-27T11:02:57.778Z,95096.16
2022-09-27T11:05:36.591Z,95108.47
2022-09-27T11:08:27.291Z,94918.59
2022-09-27T11:11:21.250Z,95103.56
2022-09-27T11:14:04.264Z,95096.97
2022-09-27T11:16:52.203Z,95047.53
2022-09-27T11:19:37.423Z,95010.84
2022-09-27T11:22:22.071Z,95098.97
2022-09-27T11:25:08.177Z,95073.63
2022-09-27T11:27:52.272Z,95101.09
2022-09-27T11:30:25.939Z,95103.41
2022-09-27T11:33:50.325Z,95100.97
2022-09-27T11:36:33.990Z,95049.81
2022-09-27T11:39:10.941Z,95084.38
2022-09-27T11:42:02.794Z,95057.38
2022-09-27T11:45:31.857Z,95076.59
2022-09-27T11:48:03.842Z,95057.88
2022-09-27T11:51:14.839Z,95048.16
2022-09-27T11:54:05.330Z,95077.31
2022-09-27T11:56:50.046Z,95085.28
2022-09-27T11:59:55.504Z,95090.78
2022-09-27T12:03:12.256Z,95051.50
2022-09-27T12:05:58.734Z,95072.59
2022-09-27T12:08:48.056Z,95084.97
2022-09-27T12:11:23.837Z,95059.31
2022-09-27T12:13:58.603Z,95062.84
2022-09-27T12:16:28.628Z,95061.63
2022-09-27T12:18:58.112Z,95017.09
2022-09-27T12:21:39.228Z,95087.31
2022-09-27T12:24:07.969Z,95049.88
2022-09-27T12:26:44.474Z,95047.63
2022-09-27T12:29:23.514Z,95024.59
2022-09-27T12:32:00.491Z,95084.63
2022-09-27T12:34:40.010Z,95061.88
2022-09-27T12:37:15.585Z,95063.31
2022-09-27T12:39:51.814Z,95063.09
2022-09-27T12:42:38.298Z,95067.63
2022-09-27T12:45:15.185Z,95076.41
2022-09-27T12:48:03.796Z,95114.56
2022-09-27T12:50:38.168Z,95069.03
2022-09-27T12:53:14.662Z,95079.50
2022-09-27T12:56:11.812Z,95062.94
2022-09-27T12:58:59.994Z,95110.53
2022-09-27T13:02:05.793Z,95121.47
2022-09-27T13:05:22.396Z,95118.22
2022-09-27T13:08:20.349Z,95148.03
2022-09-27T13:11:00.490Z,95119.22
2022-09-27T13:13:36.587Z,95401.59
2022-09-27T13:16:09.005Z,95067.59
2022-09-27T13:18:56.219Z,95062.91
2022-09-27T13:21:59.434Z,95031.53
2022-09-27T13:24:53.798Z,95047.72
2022-09-27T13:27:52.346Z,95052.94
2022-09-27T13:30:48.318Z,95054.91
2022-09-27T13:33:46.805Z,95025.56
2022-09-27T13:36:34.510Z,95077.69
2022-09-27T13:39:21.251Z,94923.97
2022-09-27T13:42:35.842Z,95027.97
2022-09-27T13:45:24.103Z,95050.09
2022-09-27T13:47:56.879Z,95034.94
2022-09-27T13:50:48.268Z,95034.00
2022-09-27T13:53:30.031Z,95059.84
2022-09-27T13:55:58.568Z,95029.16
2022-09-27T13:58:50.345Z,95052.66
2022-09-27T14:01:42.822Z,95045.91
2022-09-27T14:04:19.764Z,95085.88
2022-09-27T14:06:54.875Z,94993.34
2022-09-27T14:09:35.989Z,95078.19
2022-09-27T14:12:21.145Z,95056.03
2022-09-27T14:14:52.506Z,95050.84
2022-09-27T14:17:21.017Z,95065.81
2022-09-27T14:19:51.327Z,95033.63
2022-09-27T14:22:24.264Z,95033.25
2022-09-27T14:25:05.029Z,95011.94
2022-09-27T14:27:41.923Z,95044.41
2022-09-27T14:30:31.672Z,95002.44
2022-09-27T14:33:31.205Z,95035.63
2022-09-27T14:36:26.837Z,95058.47
2022-09-27T14:39:00.304Z,95050.16
2022-09-27T14:41:37.615Z,95047.03
2022-09-27T14:44:06.126Z,94996.88
2022-09-27T14:46:35.057Z,95022.94
2022-09-27T14:49:19.533Z,95033.06
2022-09-27T14:51:53.693Z,95022.00
2022-09-27T14:54:26.968Z,95058.38
2022-09-27T14:56:57.599Z,94939.47
2022-09-27T14:59:31.013Z,94934.75
2022-09-27T15:02:02.196Z,95039.38
2022-09-27T15:04:33.199Z,95046.78
2022-09-27T15:07:03.337Z,95039.84
2022-09-27T15:09:33.643Z,94976.41
2022-09-27T15:12:05.155Z,95062.53
2022-09-27T15:14:34.272Z,95032.50
2022-09-27T15:17:06.043Z,95051.38
2022-09-27T15:19:35.366Z,95047.38
2022-09-27T15:22:24.951Z,95098.13
2022-09-27T15:24:54.587Z,95060.91
2022-09-27T15:27:25.983Z,95050.16
2022-09-27T15:29:57.730Z,94993.88
2022-09-27T15:32:28.706Z,95018.97
2022-09-27T15:34:58.212Z,95014.72
2022-09-27T15:37:29.745Z,94997.72
2022-09-27T15:40:45.220Z,95084.53
2022-09-27T15:43:22.913Z,95070.78
2022-09-27T15:45:53.373Z,95019.59
2022-09-27T15:48:22.707Z,95049.44
2022-09-27T15:50:51.480Z,95079.91
2022-09-27T15:53:46.575Z,95072.75
2022-09-27T15:56:16.997Z,95063.91
2022-09-27T15:58:45.871Z,95051.13
2022-09-27T16:01:21.248Z,95051.72
2022-09-27T16:03:59.975Z,95078.28
2022-09-27T16:06:30.256Z,95064.53
2022-09-27T16:08:58.667Z,95025.97
2022-09-27T16:11:28.194Z,94967.59
2022-09-27T16:13:56.348Z,95042.44
2022-09-27T16:16:24.586Z,95065.06
2022-09-27T16:18:53.643Z,95048.50
2022-09-27T16:21:21.814Z,95047.63
2022-09-27T16:23:50.043Z,95100.59
2022-09-27T16:26:19.391Z,95089.91
2022-09-27T16:28:49.471Z,95036.34
2022-09-27T16:31:18.740Z,95094.41
2022-09-27T16:33:49.620Z,95077.03
2022-09-27T16:36:20.156Z,95104.09
2022-09-27T16:38:52.542Z,95100.41
2022-09-27T16:41:22.275Z,95069.03
2022-09-27T16:43:52.746Z,95095.22
2022-09-27T16:46:21.831Z,95066.47
2022-09-27T16:48:50.327Z,95071.31
2022-09-27T16:51:38.434Z,95074.75
2022-09-27T16:54:15.870Z,95152.97
2022-09-27T16:56:44.976Z,95047.25
2022-09-27T16:59:14.702Z,95093.28
2022-09-27T17:01:43.146Z,95072.75
2022-09-27T17:04:11.415Z,95120.25
2022-09-27T17:06:39.711Z,95071.38
2022-09-27T17:09:08.319Z,95089.09
2022-09-27T17:11:36.961Z,95028.81
2022-09-27T17:14:05.226Z,95061.38
2022-09-27T17:16:34.939Z,94947.88
2022-09-27T17:19:03.416Z,94990.84
2022-09-27T17:21:35.652Z,95082.97
2022-09-27T17:24:07.100Z,95016.78
2022-09-27T17:26:36.491Z,95062.13
2022-09-27T17:29:05.472Z,95028.91
2022-09-27T17:31:35.593Z,95037.91
2022-09-27T17:34:04.758Z,94921.69
2022-09-27T17:36:37.413Z,95410.47
2022-09-27T17:39:06.283Z,95081.59
2022-09-27T17:41:39.662Z,94900.59
2022-09-27T17:44:08.406Z,95068.88
2022-09-27T17:46:38.862Z,95095.41
2022-09-27T17:49:24.748Z,95063.06
2022-09-27T17:51:55.032Z,95071.50
2022-09-27T17:54:27.805Z,95038.88
2022-09-27T17:56:57.238Z,95066.19
2022-09-27T17:59:26.033Z,95050.53
2022-09-27T18:01:55.689Z,95046.19
2022-09-27T18:04:25.095Z,95104.06
2022-09-27T18:06:53.611Z,95091.88
2022-09-27T18:09:21.923Z,95045.38
2022-09-27T18:11:50.719Z,95043.28
2022-09-27T18:14:19.176Z,95076.19
2022-09-27T18:16:47.411Z,95031.19
2022-09-27T18:19:18.674Z,95038.69
2022-09-27T18:21:46.899Z,95140.84
2022-09-27T18:24:15.275Z,95057.75
2022-09-27T18:26:46.464Z,95107.34
2022-09-27T18:29:16.786Z,95090.66
2022-09-27T18:31:48.746Z,95121.22
2022-09-27T18:34:20.259Z,95061.28
2022-09-27T18:36:48.748Z,95096.88
2022-09-27T18:39:19.261Z,95110.97
2022-09-27T18:41:49.462Z,95061.69
2022-09-27T18:44:19.171Z,95074.66
2022-09-27T18:46:47.938Z,94987.94
2022-09-27T18:49:21.062Z,95091.91
2022-09-27T18:51:52.072Z,95101.78
2022-09-27T18:54:23.123Z,95045.09
2022-09-27T18:56:53.199Z,95036.75
2022-09-27T18:59:23.531Z,95126.88
2022-09-27T19:01:52.485Z,95036.94
2022-09-27T19:04:24.710Z,95147.38
2022-09-27T19:06:53.785Z,95101.31
2022-09-27T19:09:22.500Z,95134.47
2022-09-27T19:11:51.039Z,95142.13
2022-09-27T19:14:22.367Z,95157.41
2022-09-27T19:16:51.487Z,95006.41
2022-09-27T19:19:22.730Z,95145.31
2022-09-27T19:21:51.113Z,95128.53
2022-09-27T19:24:19.678Z,95132.94
2022-09-27T19:26:47.957Z,95177.16
2022-09-27T19:29:16.331Z,95140.25
2022-09-27T19:31:44.640Z,95120.41
2022-09-27T19:34:12.871Z,95172.66
2022-09-27T19:36:42.424Z,95162.53
2022-09-27T19:39:10.618Z,95201.06
2022-09-27T19:41:40.229Z,95138.22
2022-09-27T19:44:08.474Z,95168.03
2022-09-27T19:46:37.520Z,95172.91
2022-09-27T19:49:06.361Z,95170.91
2022-09-27T19:51:34.565Z,95124.09
2022-09-27T19:54:04.466Z,95108.94
2022-09-27T19:56:32.632Z,95178.03
2022-09-27T19:59:04.925Z,95140.41
2022-09-27T20:01:35.807Z,95154.94
2022-09-27T20:04:04.462Z,95129.97
2022-09-27T20:06:33.131Z,95150.19
2022-09-27T20:09:04.128Z,95167.75
2022-09-27T20:11:33.195Z,95199.09
2022-09-27T20:14:01.492Z,95177.16
2022-09-27T20:16:29.817Z,95138.63
2022-09-27T20:19:00.832Z,95204.94
2022-09-27T20:21:32.490Z,95142.84
2022-09-27T20:24:03.903Z,95139.25
2022-09-27T20:26:36.485Z,95136.19
2022-09-27T20:29:06.858Z,95148.47
2022-09-27T20:31:37.863Z,95147.16
2022-09-27T20:34:08.464Z,95184.91
2022-09-27T20:36:39.477Z,95112.78
2022-09-27T20:39:11.330Z,95149.00
2022-09-27T20:41:41.836Z,95142.13
2022-09-27T20:44:12.671Z,95125.72
2022-09-27T20:46:44.131Z,95100.06
2022-09-27T20:49:15.598Z,95126.72
2022-09-27T20:51:48.296Z,95130.59
2022-09-27T20:54:18.420Z,95147.63
2022-09-27T20:56:48.668Z,95101.88
2022-09-27T20:59:19.416Z,95162.19
2022-09-27T21:01:49.978Z,95116.44
2022-09-27T21:04:21.377Z,95124.19
2022-09-27T21:06:50.161Z,95153.81
2022-09-27T21:09:19.934Z,95095.00
2022-09-27T21:11:49.520Z,95089.69
2022-09-27T21:14:18.032Z,95126.34
2022-09-27T21:16:46.939Z,95107.13
2022-09-27T21:19:15.431Z,95126.00
2022-09-27T21:21:43.871Z,95089.81
2022-09-27T21:24:12.386Z,95114.88
2022-09-27T21:26:41.887Z,95105.84
2022-09-27T21:29:11.737Z,95097.03
2022-09-27T21:31:40.102Z,95119.94
2022-09-27T21:34:08.414Z,95106.94
2022-09-27T21:36:39.125Z,95126.69
2022-09-27T21:39:09.233Z,95116.59
2022-09-27T21:41:38.815Z,95154.19
2022-09-27T21:44:09.574Z,95109.47
2022-09-27T21:46:41.802Z,95145.16
2022-09-27T21:49:11.141Z,95164.47
2022-09-27T21:51:41.090Z,95126.22
2022-09-27T21:54:12.005Z,95127.13
2022-09-27T21:56:41.857Z,95144.78
2022-09-27T21:59:15.205Z,95100.25
2022-09-27T22:01:45.253Z,95104.66
2022-09-27T22:04:14.499Z,95112.34
2022-09-27T22:06:43.105Z,95126.22
2022-09-27T22:09:16.502Z,95098.41
2022-09-27T22:11:47.238Z,95089.97
2022-09-27T22:14:19.756Z,95083.19
2022-09-27T22:16:47.953Z,95096.28
2022-09-27T22:19:17.563Z,95131.31
2022-09-27T22:21:45.779Z,95070.75
2022-09-27T22:24:16.461Z,95114.97
2022-09-27T22:26:48.466Z,95062.38
2022-09-27T22:29:18.836Z,95063.22
2022-09-27T22:31:47.332Z,95066.44
2022-09-27T22:34:18.703Z,95005.78
2022-09-27T22:36:47.471Z,95049.34
2022-09-27T22:39:15.770Z,95003.44
2022-09-27T22:41:44.668Z,95055.06
2022-09-27T22:44:12.927Z,95057.50
2022-09-27T22:46:42.700Z,94923.66
2022-09-27T22:49:10.960Z,95045.28
2022-09-27T22:51:39.121Z,95038.81
2022-09-27T22:54:07.619Z,95019.41
2022-09-27T22:56:35.786Z,95058.09
2022-09-27T22:59:04.318Z,95055.22
2022-09-27T23:01:32.536Z,95071.28
2022-09-27T23:04:02.920Z,95013.03
2022-09-27T23:06:32.031Z,94973.25
2022-09-27T23:09:01.348Z,94978.75
2022-09-27T23:11:31.198Z,94985.91
2022-09-27T23:13:59.400Z,95050.44
2022-09-27T23:16:27.714Z,94992.84
2022-09-27T23:18:57.858Z,95023.16
2022-09-27T23:21:29.186Z,94971.41
2022-09-27T23:23:59.732Z,94973.84
2022-09-27T23:26:29.467Z,94981.56
2022-09-27T23:28:59.873Z,94993.56
2022-09-27T23:31:30.889Z,94998.91
2022-09-27T23:34:02.720Z,94963.28
2022-09-27T23:36:32.676Z,94979.00
2022-09-27T23:39:01.703Z,95002.81
2022-09-27T23:41:30.073Z,94962.00
2022-09-27T23:43:58.855Z,94959.03
2022-09-27T23:46:27.208Z,94939.09
2022-09-27T23:48:58.779Z,94971.75
2022-09-27T23:51:27.057Z,94956.44
2022-09-27T23:53:57.146Z,94911.06
2022-09-27T23:56:26.429Z,94921.28
2022-09-27T23:58:54.600Z,94934.38
